Time;durP1;ratioP1;P1;durP2;ratioP2;P2;SDS_P1;SDS_P2;PMS_P1;PMS_P2;Temp;Humidity;BMP_temperature;BMP_pressure;BME280_temperature;BME280_humidity;BME280_pressure;Samples;Min_cycle;Max_cycle;Signal;HPM_P1;HPM_P2
2022/08/25 00:00:54;;;;;;;27.98;9.30;;;;;;;16.65;100.00;98687.34;2606040;28;20136;-93
2022/08/25 00:02:10;;;;;;;51.95;10.93;;;;;;;16.67;100.00;98692.56;2606913;28;20938;-93
2022/08/25 00:03:26;;;;;;;39.78;10.07;;;;;;;16.64;100.00;98695.34;2605547;28;20092;-92
2022/08/25 00:04:42;;;;;;;17.80;9.57;;;;;;;16.66;100.00;98689.03;2605980;28;20047;-92
2022/08/25 00:05:57;;;;;;;23.70;9.80;;;;;;;16.65;100.00;98697.06;2606749;28;20064;-92
2022/08/25 00:07:13;;;;;;;27.88;10.38;;;;;;;16.63;100.00;98697.13;2605827;28;20079;-93
2022/08/25 00:08:28;;;;;;;18.92;10.30;;;;;;;16.63;100.00;98698.94;2606503;28;20564;-93
2022/08/25 00:09:44;;;;;;;31.10;10.05;;;;;;;16.66;100.00;98701.41;2606155;28;20110;-93
2022/08/25 00:11:01;;;;;;;34.95;9.85;;;;;;;16.66;100.00;98696.13;2606304;28;20045;-94
2022/08/25 00:12:17;;;;;;;25.20;9.70;;;;;;;16.63;100.00;98701.56;2606079;28;20132;-92
2022/08/25 00:13:32;;;;;;;55.80;11.23;;;;;;;16.62;100.00;98700.72;2606738;28;20111;-92
2022/08/25 00:14:48;;;;;;;51.38;10.68;;;;;;;16.58;100.00;98698.28;2605676;28;20049;-93
2022/08/25 00:16:03;;;;;;;60.63;11.48;;;;;;;16.52;100.00;98695.03;2606719;28;20056;-92
2022/08/25 00:17:19;;;;;;;60.28;10.60;;;;;;;16.54;100.00;98702.00;2605584;28;20049;-92
2022/08/25 00:18:36;;;;;;;53.40;10.15;;;;;;;16.56;100.00;98695.72;2605909;28;20080;-94
2022/08/25 00:19:51;;;;;;;41.83;10.10;;;;;;;16.61;100.00;98703.41;2605927;28;20048;-91
2022/08/25 00:21:07;;;;;;;33.83;9.68;;;;;;;16.59;100.00;98692.06;2606525;28;20388;-92
2022/08/25 00:22:23;;;;;;;52.90;9.63;;;;;;;16.56;100.00;98689.56;2605571;28;20049;-92
2022/08/25 00:23:38;;;;;;;45.17;9.98;;;;;;;16.58;100.00;98698.28;2606434;28;20057;-91
2022/08/25 00:24:54;;;;;;;40.20;10.02;;;;;;;16.51;100.00;98695.06;2604630;28;20053;-91
2022/08/25 00:26:11;;;;;;;32.72;9.25;;;;;;;16.55;100.00;98695.78;2605231;28;20535;-95
2022/08/25 00:27:26;;;;;;;34.67;9.85;;;;;;;16.59;100.00;98697.34;2605606;28;20049;-91
2022/08/25 00:28:43;;;;;;;54.33;8.90;;;;;;;16.54;100.00;98694.94;2606004;28;20045;-90
2022/08/25 00:29:59;;;;;;;67.85;10.35;;;;;;;16.56;100.00;98686.94;2605617;28;20100;-91
2022/08/25 00:31:18;;;;;;;50.05;9.98;;;;;;;16.59;100.00;98689.41;2607387;28;20091;-92
2022/08/25 00:32:34;;;;;;;48.50;11.88;;;;;;;16.64;100.00;98690.06;2607716;28;20084;-91
2022/08/25 00:33:50;;;;;;;68.00;10.85;;;;;;;16.65;100.00;98689.13;2607902;28;20411;-92
2022/08/25 00:35:06;;;;;;;120.03;11.70;;;;;;;16.60;100.00;98692.00;2608219;28;20105;-92
2022/08/25 00:36:22;;;;;;;37.10;9.50;;;;;;;16.57;100.00;98692.16;2607808;28;20498;-91
2022/08/25 00:37:37;;;;;;;102.90;13.57;;;;;;;16.60;100.00;98688.50;2608278;28;20091;-91
2022/08/25 00:38:53;;;;;;;85.65;12.57;;;;;;;16.54;100.00;98687.00;2608389;28;20060;-92
2022/08/25 00:40:10;;;;;;;94.15;12.20;;;;;;;16.51;100.00;98685.38;2608356;28;20132;-91
2022/08/25 00:41:26;;;;;;;97.35;11.23;;;;;;;16.49;100.00;98681.09;2608108;28;20060;-90
2022/08/25 00:42:41;;;;;;;76.65;11.35;;;;;;;16.49;100.00;98686.38;2607850;28;20055;-92
2022/08/25 00:43:59;;;;;;;113.90;12.70;;;;;;;16.49;100.00;98684.59;2607895;28;20607;-91
2022/08/25 00:45:15;;;;;;;86.93;13.32;;;;;;;16.46;100.00;98678.59;2607874;28;20056;-91
2022/08/25 00:46:39;;;;;;;65.90;12.27;;;;;;;16.43;100.00;98673.47;2607438;28;20055;-92
2022/08/25 00:47:55;;;;;;;57.47;11.65;;;;;;;16.42;100.00;98683.16;2607850;28;20060;-91
2022/08/25 00:49:38;;;;;;;80.15;11.18;;;;;;;16.45;100.00;98677.72;2607880;28;20496;-91
2022/08/25 00:50:53;;;;;;;49.38;10.82;;;;;;;16.45;100.00;98677.72;2601921;28;20048;-91
2022/08/25 00:52:17;;;;;;;65.03;11.88;;;;;;;16.48;100.00;98672.31;2608120;28;20053;-90
2022/08/25 00:53:33;;;;;;;70.97;12.10;;;;;;;16.47;100.00;98678.50;2608424;28;20051;-91
2022/08/25 00:54:55;;;;;;;68.93;10.35;;;;;;;16.45;100.00;98672.44;2607158;28;20419;-90
2022/08/25 00:56:13;;;;;;;47.88;10.32;;;;;;;16.41;100.00;98678.81;2607876;28;20072;-90
2022/08/25 00:57:33;;;;;;;80.38;10.93;;;;;;;16.41;100.00;98677.94;2607050;28;20059;-91
2022/08/25 00:58:49;;;;;;;54.53;9.98;;;;;;;16.39;100.00;98680.69;2608356;28;20119;-91
2022/08/25 01:00:28;;;;;;;37.83;9.35;;;;;;;16.27;100.00;98691.84;2607586;28;20052;-91
2022/08/25 01:01:43;;;;;;;43.17;9.85;;;;;;;16.22;100.00;98682.34;2608023;28;20459;-91
2022/08/25 01:02:59;;;;;;;43.78;10.93;;;;;;;16.23;100.00;98689.34;2607094;28;20487;-90
2022/08/25 01:04:15;;;;;;;56.70;10.13;;;;;;;16.22;100.00;98687.63;2607800;28;20045;-91
2022/08/25 01:05:31;;;;;;;37.03;9.70;;;;;;;16.28;100.00;98689.13;2607346;28;20096;-91
2022/08/25 01:06:48;;;;;;;78.28;10.63;;;;;;;16.28;100.00;98689.13;2608121;28;20539;-90
2022/08/25 01:08:06;;;;;;;68.10;9.93;;;;;;;16.17;100.00;98689.63;2606918;28;20419;-90
2022/08/25 01:09:21;;;;;;;92.60;10.27;;;;;;;16.14;100.00;98691.56;2608122;28;20057;-89
2022/08/25 01:10:41;;;;;;;49.75;9.52;;;;;;;16.14;100.00;98688.94;2606644;28;20049;-89
2022/08/25 01:11:58;;;;;;;106.90;10.45;;;;;;;16.15;100.00;98688.84;2607661;28;20048;-91
2022/08/25 01:13:24;;;;;;;106.03;10.35;;;;;;;16.15;100.00;98694.13;2607376;28;20053;-89
2022/08/25 01:14:43;;;;;;;57.42;9.13;;;;;;;16.17;100.00;98692.25;2607837;28;20052;-88
2022/08/25 01:15:59;;;;;;;36.78;8.13;;;;;;;16.14;100.00;98700.34;2610315;28;20060;-89
2022/08/25 01:17:15;;;;;;;76.82;9.85;;;;;;;16.18;100.00;98695.78;2609193;28;20136;-89
2022/08/25 01:18:53;;;;;;;43.67;8.30;;;;;;;16.14;100.00;98696.84;2607509;28;20041;-89
2022/08/25 01:20:09;;;;;;;53.30;8.50;;;;;;;16.15;100.00;98696.75;2607918;28;20040;-89
2022/08/25 01:21:27;;;;;;;65.13;10.10;;;;;;;16.14;100.00;98684.47;2607338;28;20057;-90
2022/08/25 01:22:43;;;;;;;30.95;9.75;;;;;;;16.23;100.00;98691.13;2607702;28;20037;-89
2022/08/25 01:24:00;;;;;;;52.80;10.23;;;;;;;16.18;100.00;98686.03;2607650;28;20049;-90
2022/08/25 01:25:28;;;;;;;70.18;11.23;;;;;;;16.15;100.00;98688.84;2607370;28;20048;-90
2022/08/25 01:26:43;;;;;;;61.35;9.90;;;;;;;16.11;100.00;98684.63;2607074;28;20088;-89
2022/08/25 01:27:59;;;;;;;60.72;9.55;;;;;;;16.10;100.00;98688.22;2607675;28;20060;-90
2022/08/25 01:29:21;;;;;;;65.35;10.70;;;;;;;16.19;100.00;98682.47;2607643;28;20041;-90
2022/08/25 01:30:37;;;;;;;70.90;11.23;;;;;;;16.17;100.00;98686.97;2607485;28;20045;-90
2022/08/25 01:31:59;;;;;;;68.68;11.38;;;;;;;16.15;100.00;98678.28;2607567;28;20084;-90
2022/08/25 01:33:16;;;;;;;64.18;10.73;;;;;;;16.15;100.00;98683.56;2607479;28;20543;-92
2022/08/25 01:34:35;;;;;;;42.72;10.00;;;;;;;16.07;100.00;98683.06;2606702;28;20049;-91
2022/08/25 01:35:51;;;;;;;55.85;10.43;;;;;;;15.91;100.00;98689.03;2607777;28;20495;-91
2022/08/25 01:37:08;;;;;;;51.33;10.73;;;;;;;15.87;100.00;98682.16;2607237;28;20045;-90
2022/08/25 01:38:23;;;;;;;54.28;10.90;;;;;;;15.84;100.00;98681.44;2607376;28;20621;-92
2022/08/25 01:39:40;;;;;;;44.22;10.52;;;;;;;15.81;100.00;98683.31;2607332;28;20080;-91
2022/08/25 01:40:55;;;;;;;126.55;13.68;;;;;;;15.84;100.00;98684.09;2607249;28;20045;-90
2022/08/25 01:42:12;;;;;;;115.22;10.75;;;;;;;15.88;100.00;98683.88;2606544;28;20137;-90
2022/08/25 01:43:36;;;;;;;46.42;9.82;;;;;;;15.96;100.00;98680.91;2607070;28;20049;-91
2022/08/25 01:44:52;;;;;;;49.22;8.30;;;;;;;15.95;100.00;98688.00;2607325;28;20080;-90
2022/08/25 01:46:08;;;;;;;133.38;10.77;;;;;;;15.93;100.00;98676.66;2607947;28;20053;-90
2022/08/25 01:47:23;;;;;;;93.88;10.95;;;;;;;15.95;100.00;98679.19;2606802;28;20057;-91
2022/08/25 01:48:39;;;;;;;77.93;10.32;;;;;;;15.97;100.00;98673.88;2607299;28;20715;-91
2022/08/25 01:49:54;;;;;;;62.40;9.52;;;;;;;15.98;100.00;98679.06;2607515;28;20049;-91
2022/08/25 01:51:10;;;;;;;58.45;9.98;;;;;;;15.94;100.00;98675.72;2607685;28;20049;-91
2022/08/25 01:52:35;;;;;;;100.30;11.73;;;;;;;15.95;100.00;98672.16;2607233;28;20051;-90
2022/08/25 01:53:51;;;;;;;112.97;10.27;;;;;;;15.89;100.00;98669.78;2607369;28;20479;-90
2022/08/25 01:55:06;;;;;;;34.60;9.50;;;;;;;15.91;100.00;98667.91;2607405;28;20075;-89
2022/08/25 01:56:22;;;;;;;46.85;8.88;;;;;;;15.99;100.00;98675.47;2606564;28;20136;-91
2022/08/25 01:57:38;;;;;;;51.20;9.23;;;;;;;15.99;100.00;98674.66;2607611;28;20388;-90
2022/08/25 01:58:53;;;;;;;72.30;9.90;;;;;;;15.94;100.00;98670.44;2606872;28;20052;-91
2022/08/25 02:00:13;;;;;;;46.15;9.35;;;;;;;15.95;100.00;98669.50;2607455;28;20048;-91
2022/08/25 02:01:29;;;;;;;67.28;8.82;;;;;;;15.83;100.00;98664.75;2607083;28;20104;-90
2022/08/25 02:02:45;;;;;;;73.72;9.48;;;;;;;15.84;100.00;98661.19;2607687;28;20041;-90
2022/08/25 02:04:00;;;;;;;139.85;11.27;;;;;;;15.93;100.00;98663.44;2606717;28;20049;-91
2022/08/25 02:05:16;;;;;;;100.78;10.50;;;;;;;15.90;100.00;98660.94;2607303;28;20059;-89
2022/08/25 02:06:33;;;;;;;28.50;8.23;;;;;;;15.90;100.00;98663.56;2606858;28;20079;-89
2022/08/25 02:07:49;;;;;;;45.10;9.70;;;;;;;15.91;100.00;98660.00;2606961;28;20404;-89
2022/08/25 02:09:08;;;;;;;150.30;12.27;;;;;;;15.90;100.00;98654.81;2606922;28;20052;-88
2022/08/25 02:10:24;;;;;;;95.30;10.38;;;;;;;15.86;100.00;98663.78;2607345;28;20076;-89
2022/08/25 02:11:41;;;;;;;172.77;12.75;;;;;;;15.84;100.00;98660.31;2607125;28;20478;-90
2022/08/25 02:12:58;;;;;;;49.78;8.48;;;;;;;15.78;100.00;98658.81;2606954;28;20439;-88
2022/08/25 02:14:15;;;;;;;122.97;12.15;;;;;;;15.88;100.00;98652.19;2607073;28;20048;-89
2022/08/25 02:15:31;;;;;;;89.22;11.07;;;;;;;15.84;100.00;98655.03;2606614;28;20049;-90
2022/08/25 02:16:50;;;;;;;140.43;13.65;;;;;;;15.85;100.00;98659.38;2606944;28;20187;-90
2022/08/25 02:18:05;;;;;;;128.88;13.10;;;;;;;15.89;100.00;98658.34;2607118;28;20616;-89
2022/08/25 02:19:23;;;;;;;175.73;13.48;;;;;;;15.89;100.00;98658.34;2607411;28;20094;-91
2022/08/25 02:20:39;;;;;;;198.40;14.25;;;;;;;15.86;100.00;98659.34;2607021;28;20419;-90
2022/08/25 02:21:54;;;;;;;144.77;12.13;;;;;;;15.81;100.00;98658.69;2607118;28;20056;-91
2022/08/25 02:23:10;;;;;;;239.18;14.98;;;;;;;15.79;100.00;98660.56;2606534;28;20087;-90
2022/08/25 02:24:27;;;;;;;203.07;13.77;;;;;;;15.81;100.00;98658.69;2606321;28;20056;-90
2022/08/25 02:25:43;;;;;;;160.20;13.82;;;;;;;15.84;100.00;98661.19;2606937;28;20049;-93
2022/08/25 02:26:58;;;;;;;181.70;14.63;;;;;;;15.81;100.00;98656.06;2606950;28;20064;-90
2022/08/25 02:28:14;;;;;;;117.45;11.15;;;;;;;15.78;100.00;98653.53;2606857;28;20052;-89
2022/08/25 02:29:30;;;;;;;216.80;14.35;;;;;;;15.82;100.00;98653.34;2606486;28;20053;-91
2022/08/25 02:30:46;;;;;;;136.90;12.20;;;;;;;15.79;100.00;98657.91;2606533;28;20049;-90
2022/08/25 02:32:02;;;;;;;107.00;11.60;;;;;;;15.73;100.00;98655.53;2607291;28;20514;-90
2022/08/25 02:33:18;;;;;;;191.77;15.30;;;;;;;15.72;100.00;98661.75;2606867;28;20053;-90
2022/08/25 02:34:34;;;;;;;142.02;13.52;;;;;;;15.72;100.00;98667.03;2606541;28;20600;-91
2022/08/25 02:35:50;;;;;;;223.27;15.73;;;;;;;15.67;100.00;98661.97;2606825;28;20056;-91
2022/08/25 02:37:07;;;;;;;121.57;13.15;;;;;;;15.68;100.00;98663.66;2606162;28;20098;-91
2022/08/25 02:38:23;;;;;;;42.67;10.00;;;;;;;15.63;100.00;98663.88;2606592;28;20305;-90
2022/08/25 02:39:39;;;;;;;82.63;11.88;;;;;;;15.66;100.00;98663.75;2607098;28;20040;-92
2022/08/25 02:40:59;;;;;;;186.70;14.77;;;;;;;15.67;100.00;98665.47;2606398;28;20057;-93
2022/08/25 02:42:14;;;;;;;182.77;14.38;;;;;;;15.60;100.00;98661.38;2606802;28;20170;-91
2022/08/25 02:43:30;;;;;;;158.82;15.60;;;;;;;15.59;100.00;98667.59;2606752;28;20496;-91
2022/08/25 02:44:46;;;;;;;111.55;12.68;;;;;;;15.59;100.00;98669.38;2607117;28;20057;-90
2022/08/25 02:46:02;;;;;;;72.60;10.98;;;;;;;15.59;100.00;98659.66;2606572;28;20084;-91
2022/08/25 02:47:18;;;;;;;140.30;13.65;;;;;;;15.59;100.00;98664.09;2607453;28;20485;-91
2022/08/25 02:48:34;;;;;;;129.77;12.00;;;;;;;15.55;100.00;98660.75;2606098;28;20068;-92
2022/08/25 02:49:50;;;;;;;28.40;10.02;;;;;;;15.51;100.00;98659.19;2607038;28;20041;-91
2022/08/25 02:51:07;;;;;;;48.60;10.80;;;;;;;15.53;100.00;98662.59;2605606;28;20045;-91
2022/08/25 02:52:24;;;;;;;137.20;12.80;;;;;;;15.54;100.00;98653.75;2606878;28;20048;-91
2022/08/25 02:53:41;;;;;;;81.80;12.20;;;;;;;15.53;100.00;98657.31;2605608;28;20041;-92
2022/08/25 02:54:57;;;;;;;44.38;11.13;;;;;;;15.52;100.00;98655.59;2606288;28;20143;-91
2022/08/25 02:56:14;;;;;;;193.40;15.73;;;;;;;15.52;100.00;98651.16;2606607;28;20049;-91
2022/08/25 02:57:30;;;;;;;179.27;15.57;;;;;;;15.56;100.00;98649.25;2605836;28;20052;-91
2022/08/25 02:58:46;;;;;;;198.65;16.00;;;;;;;15.60;100.00;98649.97;2606903;28;20064;-90
2022/08/25 03:00:04;;;;;;;194.13;13.50;;;;;;;15.56;100.00;98643.09;2606156;28;20045;-91
2022/08/25 03:01:20;;;;;;;158.85;12.10;;;;;;;15.60;100.00;98647.34;2606427;28;20056;-91
2022/08/25 03:02:36;;;;;;;141.63;12.48;;;;;;;15.66;100.00;98647.91;2607064;28;20049;-90
2022/08/25 03:03:51;;;;;;;150.23;12.70;;;;;;;15.66;100.00;98641.78;2606994;28;20053;-91
2022/08/25 03:05:08;;;;;;;126.15;12.27;;;;;;;15.76;100.00;98651.00;2606489;28;20063;-91
2022/08/25 03:06:24;;;;;;;159.73;13.07;;;;;;;15.80;100.00;98643.78;2607001;28;20053;-90
2022/08/25 03:07:40;;;;;;;141.85;12.60;;;;;;;15.70;100.00;98651.25;2606233;28;20053;-90
2022/08/25 03:08:55;;;;;;;140.18;11.80;;;;;;;15.64;100.00;98649.75;2606777;28;20435;-90
2022/08/25 03:10:14;;;;;;;129.57;11.40;;;;;;;15.72;100.00;98645.91;2606192;28;20059;-91
2022/08/25 03:11:30;;;;;;;150.32;13.25;;;;;;;15.59;100.00;98643.00;2606312;28;20504;-90
2022/08/25 03:12:46;;;;;;;186.77;13.20;;;;;;;15.64;100.00;98639.19;2605962;28;20061;-90
2022/08/25 03:14:02;;;;;;;134.65;11.57;;;;;;;15.54;100.00;98641.41;2606594;28;20064;-91
2022/08/25 03:15:18;;;;;;;145.23;13.73;;;;;;;15.63;100.00;98639.28;2606329;28;20056;-90
2022/08/25 03:16:33;;;;;;;156.25;14.05;;;;;;;15.68;100.00;98647.81;2606626;28;20097;-90
2022/08/25 03:17:49;;;;;;;177.63;13.23;;;;;;;15.69;100.00;98644.25;2606077;28;20480;-90
2022/08/25 03:19:04;;;;;;;189.20;14.13;;;;;;;15.68;100.00;98646.06;2606194;28;20507;-92
2022/08/25 03:20:22;;;;;;;133.35;12.02;;;;;;;15.61;100.00;98649.91;2606000;28;20400;-90
2022/08/25 03:21:37;;;;;;;188.00;14.02;;;;;;;15.67;100.00;98644.34;2606734;28;20452;-91
2022/08/25 03:22:53;;;;;;;130.27;12.95;;;;;;;15.64;100.00;98652.38;2605979;28;20049;-90
2022/08/25 03:24:09;;;;;;;187.27;14.25;;;;;;;15.64;100.00;98641.00;2605786;28;20063;-91
2022/08/25 03:26:58;;;;;;;213.32;16.23;;;;;;;15.57;100.00;98648.31;2606417;28;20045;-90
2022/08/25 03:28:14;;;;;;;132.48;12.68;;;;;;;15.62;100.00;98646.31;2606221;28;20678;-90
2022/08/25 03:29:32;;;;;;;195.70;15.27;;;;;;;15.62;100.00;98654.25;2606171;28;20049;-91
2022/08/25 03:30:47;;;;;;;86.35;10.60;;;;;;;15.58;100.00;98657.97;2606054;28;20513;-90
2022/08/25 03:32:04;;;;;;;215.50;15.60;;;;;;;15.51;100.00;98651.25;2606208;28;20670;-92
2022/08/25 03:33:19;;;;;;;174.45;14.00;;;;;;;15.54;100.00;98645.84;2606864;28;20541;-93
2022/08/25 03:34:35;;;;;;;165.48;14.18;;;;;;;15.53;100.00;98644.13;2606216;28;20486;-93
2022/08/25 03:35:50;;;;;;;197.38;13.02;;;;;;;15.50;100.00;98647.75;2606361;28;20055;-92
2022/08/25 03:37:07;;;;;;;211.43;14.85;;;;;;;15.48;100.00;98648.72;2606326;28;20055;-91
2022/08/25 03:38:24;;;;;;;249.27;16.35;;;;;;;15.41;100.00;98647.31;2606791;28;20041;-92
2022/08/25 03:39:39;;;;;;;238.25;17.00;;;;;;;15.44;100.00;98644.53;2605971;28;20107;-92
2022/08/25 03:40:55;;;;;;;64.55;10.60;;;;;;;15.40;100.00;98651.72;2606844;28;20048;-91
2022/08/25 03:42:11;;;;;;;159.98;12.45;;;;;;;15.49;100.00;98645.16;2606265;28;20410;-92
2022/08/25 03:43:26;;;;;;;174.70;13.90;;;;;;;15.47;100.00;98647.91;2606608;28;20432;-91
2022/08/25 03:44:42;;;;;;;252.82;15.40;;;;;;;15.48;100.00;98644.31;2606272;28;20517;-91
2022/08/25 03:45:58;;;;;;;203.93;13.70;;;;;;;15.48;100.00;98651.38;2606400;28;20045;-91
2022/08/25 03:47:13;;;;;;;212.93;14.68;;;;;;;15.46;100.00;98655.88;2606205;28;20083;-91
2022/08/25 03:48:29;;;;;;;202.18;14.90;;;;;;;15.47;100.00;98641.75;2605402;28;20049;-91
2022/08/25 03:49:45;;;;;;;97.57;11.25;;;;;;;15.53;100.00;98644.13;2605279;28;20056;-91
2022/08/25 03:51:01;;;;;;;129.90;11.23;;;;;;;15.49;100.00;98645.16;2606359;28;20502;-90
2022/08/25 03:52:17;;;;;;;92.70;10.80;;;;;;;15.50;100.00;98645.09;2606079;28;20069;-90
2022/08/25 03:53:32;;;;;;;141.20;11.13;;;;;;;15.48;100.00;98651.38;2606725;28;20049;-90
2022/08/25 03:54:48;;;;;;;142.27;10.65;;;;;;;15.48;100.00;98651.38;2604236;28;20083;-90
2022/08/25 03:56:03;;;;;;;167.68;13.10;;;;;;;15.43;100.00;98648.94;2606190;28;20076;-92
2022/08/25 03:57:19;;;;;;;159.00;11.90;;;;;;;15.43;100.00;98662.13;2606911;28;20107;-91
2022/08/25 03:58:35;;;;;;;190.93;13.68;;;;;;;15.45;100.00;98648.88;2605989;28;20110;-92
2022/08/25 03:59:51;;;;;;;129.98;10.85;;;;;;;15.36;100.00;98653.63;2606102;28;20516;-95
2022/08/25 04:01:06;;;;;;;129.25;10.63;;;;;;;15.32;100.00;98653.84;2605244;28;20056;-92
2022/08/25 04:02:22;;;;;;;137.57;12.70;;;;;;;15.32;100.00;98648.56;2605324;28;20045;-92
2022/08/25 04:03:38;;;;;;;221.18;13.80;;;;;;;15.30;100.00;98651.28;2606089;28;20455;-92
2022/08/25 04:04:54;;;;;;;209.65;14.10;;;;;;;15.26;100.00;98647.06;2606209;28;20060;-91
2022/08/25 04:06:09;;;;;;;232.85;14.63;;;;;;;15.28;100.00;98653.13;2605630;28;20041;-92
2022/08/25 04:07:25;;;;;;;213.25;16.48;;;;;;;15.22;100.00;98651.59;2606111;28;20427;-92
2022/08/25 04:08:41;;;;;;;245.57;16.40;;;;;;;15.17;100.00;98648.31;2605775;28;20098;-92
2022/08/25 04:09:56;;;;;;;206.57;13.55;;;;;;;15.17;100.00;98645.69;2606321;28;20045;-92
2022/08/25 04:11:16;;;;;;;96.30;12.05;;;;;;;15.18;100.00;98647.41;2605421;28;20049;-92
2022/08/25 04:12:32;;;;;;;154.02;12.50;;;;;;;15.15;100.00;98642.25;2606067;28;20056;-92
2022/08/25 04:13:48;;;;;;;122.70;14.32;;;;;;;15.14;100.00;98647.59;2605670;28;20519;-92
2022/08/25 04:15:06;;;;;;;163.02;14.60;;;;;;;15.15;100.00;98647.50;2606131;28;20477;-92
2022/08/25 04:16:24;;;;;;;225.45;15.18;;;;;;;15.09;100.00;98645.16;2605786;28;20137;-92
2022/08/25 04:17:40;;;;;;;82.95;12.00;;;;;;;15.07;100.00;98642.56;2605778;28;20075;-92
2022/08/25 04:18:58;;;;;;;151.65;13.93;;;;;;;15.15;100.00;98641.41;2604532;28;20083;-92
2022/08/25 04:20:13;;;;;;;176.10;13.93;;;;;;;15.15;100.00;98638.75;2605941;28;20122;-93
2022/08/25 04:21:29;;;;;;;145.30;13.88;;;;;;;15.17;100.00;98643.06;2606213;28;20073;-92
2022/08/25 04:22:45;;;;;;;150.40;13.55;;;;;;;15.11;100.00;98644.19;2605958;28;20075;-92
2022/08/25 04:24:01;;;;;;;122.15;12.07;;;;;;;15.08;100.00;98643.44;2605585;28;20052;-92
2022/08/25 04:25:16;;;;;;;64.60;10.45;;;;;;;15.07;100.00;98637.31;2606095;28;20091;-91
2022/08/25 04:26:44;;;;;;;95.10;11.00;;;;;;;15.09;100.00;98632.84;2606336;28;20060;-91
2022/08/25 04:28:00;;;;;;;88.43;10.93;;;;;;;15.09;100.00;98640.75;2605732;28;20044;-91
2022/08/25 04:29:19;;;;;;;79.85;10.02;;;;;;;15.11;100.00;98636.25;2606180;28;20053;-92
2022/08/25 04:30:35;;;;;;;91.82;10.10;;;;;;;15.13;100.00;98638.81;2605701;28;20552;-91
2022/08/25 04:31:52;;;;;;;114.07;10.68;;;;;;;15.15;100.00;98644.88;2606113;28;20131;-91
2022/08/25 04:33:08;;;;;;;48.95;9.23;;;;;;;15.17;100.00;98645.69;2605854;28;20114;-91
2022/08/25 04:34:25;;;;;;;40.85;8.95;;;;;;;15.19;100.00;98641.19;2606483;28;20049;-93
2022/08/25 04:35:46;;;;;;;47.35;9.82;;;;;;;15.16;100.00;98638.72;2605865;28;20049;-91
2022/08/25 04:37:04;;;;;;;88.68;12.07;;;;;;;15.21;100.00;98646.38;2606609;28;20192;-92
2022/08/25 04:38:19;;;;;;;169.43;15.35;;;;;;;15.16;100.00;98641.34;2605419;28;20081;-91
2022/08/25 04:39:35;;;;;;;81.70;11.48;;;;;;;15.20;100.00;98642.91;2606512;28;20610;-92
2022/08/25 04:40:59;;;;;;;62.03;10.98;;;;;;;15.29;100.00;98640.78;2605567;28;20763;-91
2022/08/25 04:42:14;;;;;;;128.70;13.95;;;;;;;15.39;100.00;98636.81;2606123;28;20045;-91
2022/08/25 04:43:30;;;;;;;150.02;13.35;;;;;;;15.44;100.00;98644.53;2606156;28;20130;-91
2022/08/25 04:44:46;;;;;;;187.55;14.45;;;;;;;15.47;100.00;98642.63;2606509;28;20053;-92
2022/08/25 04:46:25;;;;;;;83.97;9.70;;;;;;;15.37;100.00;98646.56;2606069;28;20068;-90
2022/08/25 04:47:41;;;;;;;134.45;11.70;;;;;;;15.44;100.00;98644.53;2604371;28;20045;-90
2022/08/25 04:48:58;;;;;;;151.88;11.00;;;;;;;15.46;100.00;98640.03;2605169;28;20543;-90
2022/08/25 04:50:14;;;;;;;138.43;10.65;;;;;;;15.55;100.00;98644.91;2606262;28;20041;-90
2022/08/25 04:51:38;;;;;;;219.10;14.88;;;;;;;15.61;100.00;98644.63;2605082;28;20053;-90
2022/08/25 04:52:53;;;;;;;109.03;10.65;;;;;;;15.59;100.00;98645.63;2606112;28;20076;-89
2022/08/25 04:54:15;;;;;;;130.38;11.23;;;;;;;15.59;100.00;98643.84;2605454;28;20053;-89
2022/08/25 04:55:31;;;;;;;184.05;15.35;;;;;;;15.63;100.00;98641.91;2605896;28;20057;-90
2022/08/25 04:56:48;;;;;;;62.60;8.40;;;;;;;15.69;100.00;98649.53;2605475;28;20057;-91
2022/08/25 04:58:03;;;;;;;108.50;10.48;;;;;;;15.65;100.00;98640.94;2605956;28;20060;-90
2022/08/25 04:59:19;;;;;;;119.40;11.00;;;;;;;15.65;100.00;98647.97;2605404;28;20041;-89
2022/08/25 05:00:35;;;;;;;77.13;10.38;;;;;;;15.67;100.00;98649.63;2606101;28;20439;-90
2022/08/25 05:01:51;;;;;;;140.60;12.23;;;;;;;15.66;100.00;98655.84;2605909;28;20344;-92
2022/08/25 05:03:07;;;;;;;146.48;12.77;;;;;;;15.63;100.00;98648.03;2605744;28;20498;-90
2022/08/25 05:04:23;;;;;;;101.45;9.18;;;;;;;15.52;100.00;98661.72;2605870;28;20045;-90
2022/08/25 05:05:39;;;;;;;74.07;10.15;;;;;;;15.63;100.00;98653.31;2604869;28;20109;-89
2022/08/25 05:06:55;;;;;;;112.30;9.75;;;;;;;15.58;100.00;98652.69;2605279;28;20060;-91
2022/08/25 05:08:10;;;;;;;77.57;9.52;;;;;;;15.67;100.00;98657.56;2605939;28;20547;-92
2022/08/25 05:09:27;;;;;;;128.18;10.57;;;;;;;15.63;100.00;98660.38;2605607;28;20049;-89
2022/08/25 05:10:42;;;;;;;110.82;11.27;;;;;;;15.66;100.00;98661.13;2605820;28;20342;-90
2022/08/25 05:11:59;;;;;;;161.32;13.38;;;;;;;15.62;100.00;98664.78;2606013;28;20049;-90
2022/08/25 05:13:15;;;;;;;91.88;9.70;;;;;;;15.65;100.00;98658.53;2605323;28;20318;-89
2022/08/25 05:14:31;;;;;;;139.88;12.48;;;;;;;15.67;100.00;98659.31;2605302;28;20052;-90
2022/08/25 05:15:56;;;;;;;63.10;9.95;;;;;;;15.68;100.00;98661.03;2605035;28;20049;-90
2022/08/25 05:17:12;;;;;;;87.47;9.68;;;;;;;15.71;100.00;98655.59;2606335;28;20419;-91
2022/08/25 05:18:30;;;;;;;144.23;10.98;;;;;;;15.63;100.00;98658.59;2607505;28;20095;-90
2022/08/25 05:19:46;;;;;;;134.57;10.48;;;;;;;15.78;100.00;98658.81;2607556;28;20064;-90
2022/08/25 05:21:13;;;;;;;125.05;10.90;;;;;;;15.70;100.00;98658.34;2607910;28;20400;-89
2022/08/25 05:22:29;;;;;;;121.30;11.45;;;;;;;15.56;100.00;98649.25;2607138;28;20049;-91
2022/08/25 05:23:46;;;;;;;100.18;10.23;;;;;;;15.62;100.00;98648.97;2607564;28;20060;-89
2022/08/25 05:25:02;;;;;;;123.95;10.43;;;;;;;15.72;100.00;98654.69;2606962;28;20129;-90
2022/08/25 05:26:23;;;;;;;103.25;9.90;;;;;;;15.63;100.00;98649.84;2607155;28;20086;-89
2022/08/25 05:27:41;;;;;;;88.05;9.55;;;;;;;15.74;100.00;98650.22;2606922;28;20449;-91
2022/08/25 05:28:59;;;;;;;98.35;9.95;;;;;;;15.71;100.00;98652.13;2607006;28;20045;-89
2022/08/25 05:30:15;;;;;;;125.65;12.85;;;;;;;15.74;100.00;98654.63;2607325;28;20048;-89
2022/08/25 05:31:31;;;;;;;133.70;11.60;;;;;;;15.77;100.00;98646.53;2605830;28;20116;-90
2022/08/25 05:32:47;;;;;;;109.90;12.30;;;;;;;15.73;100.00;98648.50;2606981;28;20083;-90
2022/08/25 05:34:06;;;;;;;91.88;10.10;;;;;;;15.73;100.00;98645.84;2607061;28;20079;-90
2022/08/25 05:35:22;;;;;;;158.15;13.10;;;;;;;15.84;100.00;98649.75;2607113;28;20056;-91
2022/08/25 05:36:41;;;;;;;131.77;11.63;;;;;;;15.84;100.00;98647.13;2607260;28;20087;-89
2022/08/25 05:37:58;;;;;;;116.35;11.43;;;;;;;15.80;100.00;98649.06;2607453;28;20060;-92
2022/08/25 05:39:13;;;;;;;67.03;9.90;;;;;;;15.87;100.00;98644.38;2606543;28;20128;-89
2022/08/25 05:40:30;;;;;;;86.97;9.75;;;;;;;15.88;100.00;98644.28;2606898;28;20041;-89
2022/08/25 05:41:45;;;;;;;98.40;12.27;;;;;;;15.88;100.00;98644.28;2606622;28;20064;-90
2022/08/25 05:43:01;;;;;;;59.95;9.63;;;;;;;16.00;100.00;98655.22;2607025;28;20072;-91
2022/08/25 05:44:17;;;;;;;75.47;11.30;;;;;;;16.03;100.00;98650.66;2606401;28;20072;-91
2022/08/25 05:45:33;;;;;;;64.78;10.10;;;;;;;15.94;100.00;98645.81;2606485;28;20051;-89
2022/08/25 05:46:49;;;;;;;101.53;10.95;;;;;;;16.01;100.00;98649.00;2606468;28;20136;-90
2022/08/25 05:48:05;;;;;;;128.10;12.18;;;;;;;16.04;100.00;98647.09;2607035;28;20057;-90
2022/08/25 05:49:21;;;;;;;93.60;11.13;;;;;;;16.13;100.00;98643.16;2606581;28;20041;-91
2022/08/25 05:50:37;;;;;;;77.30;10.00;;;;;;;16.14;100.00;98642.22;2606973;28;20502;-92